Time;durP1;ratioP1;P1;durP2;ratioP2;P2;SDS_P1;SDS_P2;PMS_P1;PMS_P2;Temp;Humidity;BMP_temperature;BMP_pressure;BME280_temperature;BME280_humidity;BME280_pressure;Samples;Min_cycle;Max_cycle;Signal;HPM_P1;HPM_P2
2022/08/07 00:01:08;;;;;;;6.15;4.57;;;14.40;98.90;;;;;;4992937;28;20038;-45
2022/08/07 00:03:34;;;;;;;7.63;4.55;;;14.40;99.00;;;;;;4975983;28;20037;-52
2022/08/07 00:06:00;;;;;;;8.77;4.63;;;14.40;99.20;;;;;;4993376;28;20022;-48
2022/08/07 00:08:26;;;;;;;7.43;4.57;;;14.30;99.10;;;;;;4993287;28;20038;-46
2022/08/07 00:10:52;;;;;;;7.88;4.60;;;14.30;99.20;;;;;;4993501;28;20059;-45
2022/08/07 00:13:20;;;;;;;10.13;5.07;;;14.20;99.30;;;;;;4993761;28;20026;-45
2022/08/07 00:15:47;;;;;;;7.60;4.32;;;14.20;99.40;;;;;;4993449;28;20030;-49
2022/08/07 00:18:15;;;;;;;9.07;5.30;;;14.20;99.70;;;;;;4993484;28;20026;-48
2022/08/07 00:20:40;;;;;;;6.75;4.45;;;14.10;99.80;;;;;;4993133;28;20089;-46
2022/08/07 00:23:06;;;;;;;7.35;4.78;;;14.00;99.90;;;;;;4993373;28;20026;-45
2022/08/07 00:25:32;;;;;;;12.80;4.82;;;14.00;99.90;;;;;;4992711;28;20072;-44
2022/08/07 00:27:58;;;;;;;7.93;4.95;;;13.90;99.90;;;;;;4992483;28;20062;-48
2022/08/07 00:30:28;;;;;;;8.35;5.18;;;13.90;99.90;;;;;;4993458;28;20030;-47
2022/08/07 00:32:54;;;;;;;;;;;13.90;99.90;;;;;;4993215;28;20568;-46
2022/08/07 00:35:20;;;;;;;7.53;4.47;;;13.90;99.90;;;;;;4992968;28;19910;-49
2022/08/07 00:37:46;;;;;;;7.90;4.97;;;13.90;99.90;;;;;;4991423;28;20412;-50
2022/08/07 00:40:13;;;;;;;9.68;5.22;;;13.80;99.90;;;;;;4993065;28;20477;-57
2022/08/07 00:42:40;;;;;;;7.32;4.68;;;13.80;99.90;;;;;;4993062;28;20041;-51
2022/08/07 00:45:09;;;;;;;7.53;4.50;;;13.70;99.90;;;;;;4992712;28;20025;-49
2022/08/07 00:47:35;;;;;;;12.07;4.47;;;13.80;99.90;;;;;;4992780;28;20034;-46
2022/08/07 00:50:01;;;;;;;7.93;4.03;;;13.80;99.90;;;;;;4992847;28;20056;-45
2022/08/07 00:52:27;;;;;;;7.80;4.30;;;13.70;99.90;;;;;;4992855;28;20073;-49
2022/08/07 00:54:53;;;;;;;6.70;4.10;;;13.70;99.90;;;;;;4975185;28;20031;-47
2022/08/07 00:57:20;;;;;;;6.40;4.30;;;13.60;99.90;;;;;;4992428;28;20036;-48
2022/08/07 00:59:46;;;;;;;8.27;4.53;;;13.60;99.90;;;;;;4992416;28;20491;-51
2022/08/07 01:02:12;;;;;;;5.82;3.72;;;13.60;99.90;;;;;;4992529;28;20114;-47
2022/08/07 01:04:38;;;;;;;8.52;4.10;;;13.60;99.90;;;;;;4991105;28;20026;-47
2022/08/07 01:07:04;;;;;;;8.07;4.25;;;13.60;99.90;;;;;;4992295;28;20026;-51
2022/08/07 01:09:31;;;;;;;8.80;4.03;;;13.60;99.90;;;;;;4992663;28;20042;-49
2022/08/07 01:11:57;;;;;;;6.82;4.25;;;13.50;99.90;;;;;;4992581;28;20084;-45
2022/08/07 01:14:24;;;;;;;5.63;3.97;;;13.50;99.90;;;;;;4992454;28;20057;-52
2022/08/07 01:16:51;;;;;;;7.85;4.25;;;13.60;99.90;;;;;;4991892;28;20025;-52
2022/08/07 01:19:18;;;;;;;6.55;4.20;;;13.50;99.90;;;;;;4992389;28;20401;-50
2022/08/07 01:21:45;;;;;;;6.45;4.03;;;13.50;99.90;;;;;;4992212;28;20529;-50
2022/08/07 01:24:12;;;;;;;7.35;3.85;;;13.40;99.90;;;;;;4975763;28;20022;-49
2022/08/07 01:26:37;;;;;;;6.32;3.85;;;13.40;99.90;;;;;;4991674;28;20022;-48
2022/08/07 01:29:03;;;;;;;6.78;4.13;;;13.40;99.90;;;;;;4991729;28;20045;-50
2022/08/07 01:31:32;;;;;;;6.97;3.92;;;13.30;99.90;;;;;;4989792;28;20031;-48
2022/08/07 01:33:59;;;;;;;6.68;3.55;;;13.30;99.90;;;;;;4991536;28;20050;-47
2022/08/07 01:36:27;;;;;;;6.47;3.75;;;13.30;99.90;;;;;;4991434;28;20485;-47
2022/08/07 01:38:53;;;;;;;6.95;3.97;;;13.30;99.90;;;;;;4991837;28;20076;-50
2022/08/07 01:41:19;;;;;;;8.32;4.70;;;13.30;99.90;;;;;;4992089;28;20026;-52
2022/08/07 01:43:46;;;;;;;7.82;3.80;;;13.20;99.90;;;;;;4992182;28;20034;-48
2022/08/07 01:46:14;;;;;;;9.27;4.15;;;13.20;99.90;;;;;;4991521;28;20549;-48
2022/08/07 01:48:41;;;;;;;7.68;4.13;;;13.20;99.90;;;;;;4991553;28;20145;-48
2022/08/07 01:51:11;;;;;;;6.55;3.60;;;13.20;99.90;;;;;;4991742;28;20019;-47
2022/08/07 01:53:41;;;;;;;7.45;3.47;;;13.20;99.90;;;;;;4991794;28;20027;-44
2022/08/07 01:56:13;;;;;;;6.85;3.38;;;13.10;99.90;;;;;;4991168;28;20382;-46
2022/08/07 01:58:47;;;;;;;7.18;3.85;;;13.10;99.90;;;;;;4991292;28;20026;-47
2022/08/07 02:01:18;;;;;;;5.40;3.53;;;13.00;99.90;;;;;;4991180;28;20721;-44
2022/08/07 02:03:50;;;;;;;7.28;3.70;;;13.00;99.90;;;;;;4990701;28;20030;-48
2022/08/07 02:06:18;;;;;;;5.68;3.50;;;13.00;99.90;;;;;;4991297;28;20065;-54
2022/08/07 02:08:45;;;;;;;5.65;3.60;;;13.00;99.90;;;;;;4990985;28;20034;-45
2022/08/07 02:11:11;;;;;;;6.32;4.00;;;13.00;99.90;;;;;;4991536;28;20084;-46
2022/08/07 02:13:38;;;;;;;6.55;3.60;;;12.90;99.90;;;;;;4991536;28;20518;-45
2022/08/07 02:16:07;;;;;;;5.95;3.78;;;12.90;99.90;;;;;;4990663;28;20034;-44
2022/08/07 02:18:37;;;;;;;9.50;4.03;;;12.90;99.90;;;;;;4991201;28;20536;-44
2022/08/07 02:21:04;;;;;;;5.75;3.90;;;12.90;99.90;;;;;;4991627;28;20153;-44
2022/08/07 02:23:35;;;;;;;6.13;3.80;;;12.90;99.90;;;;;;4973875;28;20112;-51
2022/08/07 02:26:03;;;;;;;5.78;3.42;;;12.80;99.90;;;;;;4994955;28;20477;-46
2022/08/07 02:28:31;;;;;;;5.70;3.60;;;12.80;99.90;;;;;;4995135;28;20088;-45
2022/08/07 02:31:00;;;;;;;5.13;3.47;;;12.70;99.90;;;;;;4995509;28;20038;-45
2022/08/07 02:33:27;;;;;;;6.43;4.00;;;12.70;99.90;;;;;;4995164;28;20090;-44
2022/08/07 02:35:54;;;;;;;6.72;4.00;;;12.70;99.90;;;;;;4995006;28;20242;-44
2022/08/07 02:38:32;;;;;;;6.97;3.80;;;12.70;99.90;;;;;;4994971;28;20043;-44
2022/08/07 02:40:59;;;;;;;7.22;3.35;;;12.60;99.90;;;;;;4995220;28;20026;-44
2022/08/07 02:43:26;;;;;;;5.22;3.30;;;12.60;99.90;;;;;;4995388;28;20550;-48
2022/08/07 02:45:53;;;;;;;6.10;3.38;;;12.60;99.90;;;;;;4994962;28;20030;-44
2022/08/07 02:48:19;;;;;;;4.97;3.45;;;12.60;99.90;;;;;;4994895;28;20033;-47
2022/08/07 02:50:49;;;;;;;6.13;3.30;;;12.50;99.90;;;;;;4994970;28;20026;-48
2022/08/07 02:53:23;;;;;;;6.15;3.35;;;12.50;99.90;;;;;;4994864;28;20089;-52
2022/08/07 02:55:51;;;;;;;6.47;3.70;;;12.40;99.90;;;;;;4994807;28;20031;-54
2022/08/07 02:58:20;;;;;;;5.78;3.47;;;12.50;99.90;;;;;;4994838;28;20036;-50
2022/08/07 03:00:50;;;;;;;7.05;3.50;;;12.40;99.90;;;;;;4994731;28;20101;-51
2022/08/07 03:03:17;;;;;;;8.20;3.10;;;12.50;99.90;;;;;;4994939;28;20049;-56
2022/08/07 03:05:44;;;;;;;8.70;3.80;;;12.40;99.90;;;;;;4994324;28;20401;-45
2022/08/07 03:08:11;;;;;;;6.53;3.67;;;12.40;99.90;;;;;;4994501;28;20104;-52
2022/08/07 03:10:38;;;;;;;5.65;3.00;;;12.30;99.90;;;;;;4993880;28;20057;-50
2022/08/07 03:13:06;;;;;;;7.32;3.58;;;12.30;99.90;;;;;;4993404;28;20045;-45
2022/08/07 03:15:32;;;;;;;6.63;3.40;;;12.30;99.90;;;;;;4994331;28;20031;-48
2022/08/07 03:17:59;;;;;;;5.45;3.45;;;12.30;99.90;;;;;;4994245;28;20030;-48
2022/08/07 03:20:25;;;;;;;5.88;2.90;;;12.30;99.90;;;;;;4994523;28;20385;-46
2022/08/07 03:22:53;;;;;;;6.22;3.30;;;12.20;99.90;;;;;;4994310;28;20049;-45
2022/08/07 03:25:19;;;;;;;5.38;3.00;;;12.20;99.90;;;;;;4994433;28;20030;-53
2022/08/07 03:27:48;;;;;;;5.10;3.00;;;12.20;99.90;;;;;;4994200;28;20477;-47
2022/08/07 03:30:14;;;;;;;5.07;3.10;;;12.20;99.90;;;;;;4980755;28;20073;-45
2022/08/07 03:32:42;;;;;;;6.15;3.38;;;12.20;99.90;;;;;;4994215;28;20070;-48
2022/08/07 03:35:18;;;;;;;6.30;3.60;;;12.10;99.90;;;;;;4993956;28;20077;-49
2022/08/07 03:37:49;;;;;;;6.03;3.15;;;12.10;99.90;;;;;;4993739;28;20462;-45
2022/08/07 03:40:17;;;;;;;6.75;3.33;;;12.10;99.90;;;;;;4993865;28;20083;-50
2022/08/07 03:42:43;;;;;;;5.10;3.03;;;12.00;99.90;;;;;;4994182;28;20026;-48
2022/08/07 03:45:10;;;;;;;6.13;3.25;;;12.00;99.90;;;;;;4994023;28;20473;-52
2022/08/07 03:47:36;;;;;;;4.47;3.10;;;12.00;99.90;;;;;;4994085;28;20030;-55
2022/08/07 03:50:02;;;;;;;5.15;3.05;;;12.00;99.90;;;;;;4993981;28;20054;-49
2022/08/07 03:52:29;;;;;;;6.53;3.10;;;12.00;99.90;;;;;;4993827;28;20018;-48
2022/08/07 03:54:58;;;;;;;4.35;2.80;;;12.00;99.90;;;;;;4993994;28;20033;-52
2022/08/07 03:57:26;;;;;;;7.38;2.85;;;11.90;99.90;;;;;;4993842;28;20022;-50
2022/08/07 03:59:53;;;;;;;4.13;2.60;;;11.90;99.90;;;;;;4993914;28;20098;-46
2022/08/07 04:02:19;;;;;;;6.20;3.15;;;11.90;99.90;;;;;;4993920;28;20030;-46
2022/08/07 04:04:45;;;;;;;5.25;2.78;;;11.90;99.90;;;;;;4993421;28;20351;-49
2022/08/07 04:07:11;;;;;;;5.60;2.75;;;11.90;99.90;;;;;;4993472;28;20030;-46
2022/08/07 04:09:38;;;;;;;7.50;3.75;;;11.90;99.90;;;;;;4993095;28;20114;-48
2022/08/07 04:12:05;;;;;;;4.65;2.53;;;11.90;99.90;;;;;;4993411;28;20023;-45
2022/08/07 04:14:31;;;;;;;7.10;3.05;;;12.00;99.90;;;;;;4993419;28;20030;-47
2022/08/07 04:16:57;;;;;;;5.07;2.95;;;11.90;99.90;;;;;;4993705;28;20065;-45
2022/08/07 04:19:24;;;;;;;5.47;3.00;;;11.90;99.90;;;;;;4993450;28;20034;-49
2022/08/07 04:21:52;;;;;;;5.28;3.03;;;11.90;99.90;;;;;;4993423;28;20553;-46
2022/08/07 04:24:18;;;;;;;6.55;3.40;;;11.90;99.90;;;;;;4993558;28;20065;-44
2022/08/07 04:26:44;;;;;;;6.70;3.08;;;11.80;99.90;;;;;;4993337;28;20018;-54
2022/08/07 04:29:10;;;;;;;5.40;3.40;;;11.80;99.90;;;;;;4993136;28;20042;-46
2022/08/07 04:31:38;;;;;;;6.05;3.08;;;11.70;99.90;;;;;;4993258;28;20539;-47
2022/08/07 04:34:05;;;;;;;4.82;3.20;;;11.70;99.90;;;;;;4993095;28;20041;-45
2022/08/07 04:36:31;;;;;;;6.05;3.17;;;11.70;99.90;;;;;;4992939;28;20029;-51
2022/08/07 04:38:56;;;;;;;5.75;3.30;;;11.70;99.90;;;;;;4993035;28;20022;-46
2022/08/07 04:41:22;;;;;;;5.55;3.05;;;11.80;99.90;;;;;;4992899;28;20027;-44
2022/08/07 04:43:49;;;;;;;5.25;3.20;;;11.80;99.90;;;;;;4993143;28;20432;-50
2022/08/07 04:46:30;;;;;;;7.88;3.42;;;11.80;99.90;;;;;;4992977;28;20033;-44
2022/08/07 04:49:21;;;;;;;6.15;2.88;;;11.80;99.90;;;;;;4992170;28;20034;-45
2022/08/07 04:52:06;;;;;;;9.48;3.00;;;11.80;99.90;;;;;;4992945;28;20014;-46
2022/08/07 04:55:00;;;;;;;5.93;3.08;;;11.80;99.90;;;;;;4992817;28;20030;-45
2022/08/07 04:57:42;;;;;;;4.93;3.05;;;11.80;99.90;;;;;;4992649;28;20377;-50
2022/08/07 05:00:15;;;;;;;4.30;2.75;;;11.80;99.90;;;;;;4992745;28;20053;-44
2022/08/07 05:03:10;;;;;;;5.10;3.00;;;11.80;99.90;;;;;;4992744;28;20030;-49
2022/08/07 05:05:46;;;;;;;5.35;3.15;;;11.90;99.90;;;;;;4955546;28;20110;-45
2022/08/07 05:08:44;;;;;;;4.88;2.80;;;11.90;99.90;;;;;;4987005;28;20037;-47
2022/08/07 05:11:20;;;;;;;5.97;2.72;;;12.00;99.90;;;;;;4992309;28;20038;-48
2022/08/07 05:14:06;;;;;;;6.57;3.35;;;12.00;99.90;;;;;;4992197;28;20025;-44
2022/08/07 05:16:36;;;;;;;5.53;3.30;;;12.00;99.90;;;;;;4971667;28;20034;-50
2022/08/07 05:19:03;;;;;;;;;;;11.90;99.90;;;;;;4984623;28;20481;-47
2022/08/07 05:21:31;;;;;;;6.65;3.25;;;11.90;99.90;;;;;;4992001;28;19909;-51
2022/08/07 05:24:00;;;;;;;5.65;3.00;;;11.90;99.90;;;;;;4992414;28;20438;-52
2022/08/07 05:26:30;;;;;;;7.20;3.45;;;11.80;99.90;;;;;;4992336;28;20022;-44
2022/08/07 05:28:57;;;;;;;;;;;11.70;99.90;;;;;;4992437;28;20046;-44
2022/08/07 05:31:28;;;;;;;6.22;3.50;;;11.60;99.90;;;;;;4991973;28;20008;-46
2022/08/07 05:33:55;;;;;;;5.78;3.25;;;11.60;99.90;;;;;;4991908;28;20046;-44
2022/08/07 05:36:22;;;;;;;7.05;3.85;;;11.70;99.90;;;;;;4991668;28;20489;-45
2022/08/07 05:38:49;;;;;;;5.57;3.45;;;11.70;99.90;;;;;;4991918;28;20420;-44
2022/08/07 05:41:15;;;;;;;4.90;3.15;;;11.80;99.90;;;;;;4974548;28;20121;-46
2022/08/07 05:43:46;;;;;;;6.93;3.33;;;11.90;99.90;;;;;;4984330;28;20113;-49
2022/08/07 05:46:12;;;;;;;4.65;2.72;;;12.00;99.90;;;;;;4991137;28;20050;-49
2022/08/07 05:48:39;;;;;;;6.72;2.90;;;12.10;99.90;;;;;;4991790;28;20085;-45
2022/08/07 05:51:05;;;;;;;6.55;2.65;;;12.30;99.90;;;;;;4991221;28;20041;-51
2022/08/07 05:53:31;;;;;;;5.82;2.65;;;12.50;99.90;;;;;;4979011;28;20173;-47
2022/08/07 05:55:58;;;;;;;4.18;2.72;;;12.70;99.90;;;;;;4991612;28;20026;-45
2022/08/07 05:58:25;;;;;;;5.15;2.50;;;12.80;99.90;;;;;;4991227;28;20049;-52
2022/08/07 06:00:53;;;;;;;5.32;2.67;;;13.10;99.90;;;;;;4991201;28;20101;-47
2022/08/07 06:03:21;;;;;;;6.78;2.50;;;13.80;99.90;;;;;;4991829;28;20097;-45
2022/08/07 06:05:47;;;;;;;3.72;2.08;;;15.00;99.90;;;;;;4991193;28;20046;-45
2022/08/07 06:08:15;;;;;;;5.57;2.13;;;16.30;99.40;;;;;;4991035;28;20030;-47
2022/08/07 06:10:42;;;;;;;3.55;1.80;;;17.60;96.90;;;;;;4991560;28;20085;-51
2022/08/07 06:13:08;;;;;;;3.63;1.73;;;18.80;94.70;;;;;;4991108;28;20022;-51
2022/08/07 06:15:35;;;;;;;4.57;1.60;;;19.70;92.60;;;;;;4991377;28;20157;-50
2022/08/07 06:18:05;;;;;;;3.13;2.22;;;20.20;91.00;;;;;;4991582;28;20022;-45
2022/08/07 06:20:33;;;;;;;6.45;1.92;;;20.20;90.60;;;;;;4991257;28;20446;-53
2022/08/07 06:23:00;;;;;;;6.15;2.40;;;20.70;89.10;;;;;;4991360;28;20129;-45
2022/08/07 06:25:25;;;;;;;5.00;2.10;;;21.20;85.40;;;;;;4985284;28;20438;-48
2022/08/07 06:27:51;;;;;;;4.13;2.30;;;21.80;83.90;;;;;;4990570;28;20022;-50
2022/08/07 06:30:17;;;;;;;6.80;2.03;;;22.10;83.10;;;;;;4991427;28;20394;-47
2022/08/07 06:32:42;;;;;;;6.05;2.10;;;22.70;80.80;;;;;;4991143;28;20055;-46
2022/08/07 06:35:08;;;;;;;4.40;2.38;;;22.90;79.00;;;;;;4989149;28;20049;-49
2022/08/07 06:37:34;;;;;;;6.75;2.15;;;22.90;77.90;;;;;;4990434;28;20038;-46
2022/08/07 06:40:00;;;;;;;2.60;1.75;;;22.80;79.10;;;;;;4990860;28;20029;-45
2022/08/07 06:42:36;;;;;;;4.80;1.85;;;22.80;78.10;;;;;;4990852;28;20097;-48
2022/08/07 06:45:07;;;;;;;3.50;1.90;;;23.20;79.90;;;;;;4990329;28;20034;-45
2022/08/07 06:47:34;;;;;;;3.03;1.92;;;23.60;77.30;;;;;;4991312;28;20150;-50
2022/08/07 06:49:59;;;;;;;3.67;1.75;;;24.20;74.90;;;;;;4990961;28;20070;-50
2022/08/07 06:52:31;;;;;;;3.42;1.80;;;23.90;75.50;;;;;;4991068;28;20077;-50
2022/08/07 06:55:00;;;;;;;3.97;2.00;;;24.10;76.10;;;;;;4990265;28;20030;-56
2022/08/07 06:57:28;;;;;;;3.22;1.60;;;24.40;74.50;;;;;;4991080;28;20474;-45
2022/08/07 06:59:54;;;;;;;3.80;1.90;;;24.60;72.80;;;;;;4990022;28;20038;-46
2022/08/07 07:02:21;;;;;;;3.10;1.70;;;24.90;72.10;;;;;;4990862;28;20038;-45
2022/08/07 07:04:47;;;;;;;3.50;1.83;;;25.50;72.20;;;;;;4990731;28;20440;-53
2022/08/07 07:07:13;;;;;;;3.38;1.52;;;26.10;69.70;;;;;;4990785;28;20026;-46
2022/08/07 07:09:47;;;;;;;2.60;1.58;;;26.60;68.70;;;;;;4989536;28;20117;-46
2022/08/07 07:12:22;;;;;;;2.17;1.52;;;27.40;66.80;;;;;;4994764;28;20025;-45
2022/08/07 07:15:12;;;;;;;3.00;1.40;;;27.90;65.10;;;;;;4994518;28;20035;-52
2022/08/07 07:17:44;;;;;;;3.33;1.45;;;28.50;62.20;;;;;;4993472;28;20031;-46
2022/08/07 07:20:15;;;;;;;5.20;1.48;;;28.90;61.40;;;;;;4993902;28;20394;-45
2022/08/07 07:22:43;;;;;;;3.97;1.60;;;29.20;59.70;;;;;;4991892;28;20018;-48
2022/08/07 07:25:10;;;;;;;;;;;29.50;59.30;;;;;;4981440;28;20039;-53
2022/08/07 07:27:48;;;;;;;2.65;1.13;;;30.10;58.00;;;;;;4993272;28;19906;-45
2022/08/07 07:30:14;;;;;;;3.38;1.20;;;30.60;56.40;;;;;;4993139;28;20030;-46
2022/08/07 07:32:41;;;;;;;4.03;1.10;;;31.10;54.60;;;;;;4993812;28;20093;-52
2022/08/07 07:35:10;;;;;;;3.92;1.30;;;31.30;53.20;;;;;;4974249;28;20045;-47
2022/08/07 07:37:38;;;;;;;2.67;1.30;;;31.30;51.80;;;;;;4991799;28;20544;-44
2022/08/07 07:40:11;;;;;;;;;;;31.20;51.20;;;;;;4976862;28;20163;-47
2022/08/07 07:42:38;;;;;;;4.53;1.27;;;31.10;50.60;;;;;;4982295;28;19918;-50
2022/08/07 07:45:05;;;;;;;2.70;1.17;;;31.10;51.10;;;;;;4990670;28;20105;-48
2022/08/07 07:47:35;;;;;;;2.55;1.10;;;31.50;52.30;;;;;;4992150;28;20268;-51
2022/08/07 07:50:01;;;;;;;3.38;1.20;;;32.20;50.80;;;;;;4991294;28;20092;-47
2022/08/07 07:52:29;;;;;;;4.93;1.20;;;32.00;48.80;;;;;;4992629;28;20097;-48
2022/08/07 07:54:55;;;;;;;2.95;1.17;;;32.20;50.10;;;;;;4993772;28;20057;-49
2022/08/07 07:57:23;;;;;;;3.67;1.00;;;32.10;49.40;;;;;;4993381;28;20406;-50
2022/08/07 07:59:50;;;;;;;3.03;1.40;;;32.10;49.80;;;;;;4993605;28;20046;-49
2022/08/07 08:02:18;;;;;;;3.10;1.20;;;32.70;48.00;;;;;;4993321;28;20592;-46
2022/08/07 08:04:44;;;;;;;;;;;33.20;47.60;;;;;;4991666;28;20494;-46
2022/08/07 08:07:11;;;;;;;3.28;1.40;;;33.20;47.10;;;;;;4980879;28;19916;-51
2022/08/07 08:09:39;;;;;;;4.20;1.53;;;33.40;46.70;;;;;;4977984;28;20073;-48
2022/08/07 08:12:05;;;;;;;4.47;1.20;;;33.70;46.80;;;;;;4978196;28;20022;-46
2022/08/07 08:14:32;;;;;;;2.67;1.05;;;34.20;44.20;;;;;;4986577;28;20038;-51
2022/08/07 08:17:00;;;;;;;2.85;1.48;;;34.20;44.40;;;;;;4986056;28;20053;-50
2022/08/07 08:19:28;;;;;;;2.35;1.20;;;33.70;43.60;;;;;;4984098;28;20508;-51
2022/08/07 08:27:34;;;;;;;2.67;1.30;;;32.00;44.10;;;;;;4990134;28;20388;-46
2022/08/07 08:30:08;;;;;;;3.38;1.35;;;31.60;46.20;;;;;;4978173;28;20460;-48
2022/08/07 08:32:39;;;;;;;4.68;1.63;;;32.00;44.80;;;;;;4972436;28;20057;-50
2022/08/07 08:35:08;;;;;;;4.45;1.50;;;32.30;44.00;;;;;;4977249;28;20023;-54
2022/08/07 08:37:36;;;;;;;3.45;1.35;;;32.80;42.20;;;;;;4976450;28;20159;-50
2022/08/07 08:40:08;;;;;;;3.97;1.48;;;32.80;42.20;;;;;;4978791;28;20109;-46
2022/08/07 08:42:43;;;;;;;3.78;2.00;;;32.70;42.10;;;;;;4974682;28;20074;-46
2022/08/07 08:45:13;;;;;;;3.90;1.80;;;33.00;40.90;;;;;;4979590;28;20445;-50
2022/08/07 08:48:00;;;;;;;3.35;1.75;;;33.50;39.70;;;;;;4976421;28;20605;-47
2022/08/07 08:50:34;;;;;;;3.42;1.85;;;34.10;38.80;;;;;;4974600;28;20039;-48
2022/08/07 08:53:25;;;;;;;3.05;1.65;;;34.40;37.40;;;;;;4978834;28;20026;-48
2022/08/07 08:56:03;;;;;;;3.60;2.10;;;34.90;36.80;;;;;;4968022;28;20118;-53
2022/08/07 08:59:07;;;;;;;;;;;35.30;36.50;;;;;;4977044;28;20026;-49
2022/08/07 09:02:03;;;;;;;4.10;2.47;;;35.20;33.80;;;;;;4966999;28;20133;-52
2022/08/07 09:04:38;;;;;;;3.50;1.90;;;35.50;33.10;;;;;;4924097;28;20038;-48
2022/08/07 09:07:17;;;;;;;4.15;2.00;;;35.80;34.70;;;;;;4970883;28;20043;-45
2022/08/07 09:10:06;;;;;;;5.90;2.25;;;35.60;36.10;;;;;;4991436;28;20033;-46
2022/08/07 09:13:09;;;;;;;3.75;1.95;;;34.80;34.90;;;;;;4986263;28;20077;-45
2022/08/07 09:15:44;;;;;;;3.63;1.90;;;34.90;35.60;;;;;;4989737;28;20034;-49
2022/08/07 09:18:59;;;;;;;3.45;1.88;;;34.70;36.70;;;;;;4991945;28;20813;-45
2022/08/07 09:21:35;;;;;;;2.88;2.00;;;34.60;36.70;;;;;;4894024;29;20049;-45
2022/08/07 09:24:09;;;;;;;5.15;1.90;;;34.80;36.40;;;;;;4984734;28;20039;-44
2022/08/07 09:27:09;;;;;;;3.28;1.98;;;35.10;36.30;;;;;;4990518;28;20034;-48
2022/08/07 09:29:38;;;;;;;3.65;2.00;;;34.90;34.10;;;;;;4984932;28;20034;-50
2022/08/07 09:32:39;;;;;;;3.97;2.10;;;34.80;35.50;;;;;;4986214;28;20042;-49
2022/08/07 09:35:41;;;;;;;4.13;2.10;;;34.90;35.30;;;;;;4991009;28;20042;-45
2022/08/07 09:38:45;;;;;;;4.15;1.90;;;34.50;34.10;;;;;;4980595;28;20042;-48
2022/08/07 09:41:18;;;;;;;5.63;2.40;;;34.30;33.50;;;;;;4975714;28;20493;-46
2022/08/07 09:44:13;;;;;;;5.68;2.67;;;34.00;35.10;;;;;;4977554;28;20042;-47
2022/08/07 09:47:23;;;;;;;3.30;2.00;;;33.40;35.00;;;;;;4991084;28;20097;-47
2022/08/07 09:50:30;;;;;;;4.15;2.00;;;33.50;35.60;;;;;;4944063;28;20096;-45
2022/08/07 09:53:01;;;;;;;3.28;2.30;;;33.50;35.50;;;;;;4981994;28;20036;-50
2022/08/07 09:56:04;;;;;;;3.90;2.13;;;33.40;37.00;;;;;;4985932;28;20038;-45
2022/08/07 09:59:08;;;;;;;3.22;2.20;;;33.50;34.30;;;;;;4982697;28;20481;-47
2022/08/07 10:01:33;;;;;;;4.78;2.10;;;33.40;35.50;;;;;;4987713;28;20023;-46
2022/08/07 10:04:18;;;;;;;4.18;2.33;;;33.00;35.90;;;;;;4990521;28;20037;-48
2022/08/07 10:07:12;;;;;;;6.10;2.17;;;32.90;35.70;;;;;;4981317;28;20037;-47
2022/08/07 10:09:56;;;;;;;4.03;1.95;;;32.20;36.90;;;;;;4990742;28;20041;-47
2022/08/07 10:12:48;;;;;;;3.78;1.67;;;31.90;36.70;;;;;;4987795;28;20022;-45
2022/08/07 10:15:37;;;;;;;6.50;2.40;;;31.90;37.30;;;;;;4977795;28;20046;-46
2022/08/07 10:18:30;;;;;;;2.95;1.90;;;31.80;36.30;;;;;;4984039;28;20100;-49
2022/08/07 10:21:25;;;;;;;4.63;2.33;;;31.60;38.00;;;;;;4979887;28;20030;-46
2022/08/07 10:24:38;;;;;;;6.82;2.53;;;32.10;36.50;;;;;;4977990;28;20123;-48
2022/08/07 10:27:39;;;;;;;3.55;1.95;;;32.60;37.90;;;;;;4912248;29;20070;-52
2022/08/07 10:30:13;;;;;;;5.68;2.60;;;33.10;36.70;;;;;;4910703;29;20067;-47
2022/08/07 10:33:04;;;;;;;5.05;1.98;;;33.20;36.00;;;;;;4955151;28;20104;-47
2022/08/07 10:35:52;;;;;;;4.68;2.00;;;33.40;35.10;;;;;;4987837;28;20117;-46
2022/08/07 10:38:24;;;;;;;4.60;1.98;;;32.90;35.90;;;;;;4990958;28;20109;-46
2022/08/07 10:41:01;;;;;;;3.80;1.95;;;33.00;36.30;;;;;;4991066;28;20022;-46
2022/08/07 10:43:33;;;;;;;2.42;1.88;;;33.30;36.70;;;;;;4989191;28;20038;-45
2022/08/07 10:46:10;;;;;;;3.60;2.00;;;33.00;35.80;;;;;;4990533;28;20026;-45
2022/08/07 10:48:47;;;;;;;4.50;2.15;;;32.60;35.80;;;;;;4991920;28;20035;-45
2022/08/07 10:51:48;;;;;;;4.25;1.92;;;32.40;36.20;;;;;;4985284;28;20181;-47
2022/08/07 10:54:52;;;;;;;3.75;2.05;;;32.30;37.00;;;;;;4990256;28;20031;-49
2022/08/07 10:57:24;;;;;;;6.72;2.58;;;32.20;39.20;;;;;;4937864;28;20085;-51
2022/08/07 11:00:09;;;;;;;4.15;2.10;;;32.30;34.80;;;;;;4994107;28;20026;-50
2022/08/07 11:03:06;;;;;;;4.72;2.30;;;32.00;36.10;;;;;;4991045;28;20485;-47
2022/08/07 11:05:54;;;;;;;5.78;2.70;;;32.00;35.90;;;;;;4985857;28;20047;-53
2022/08/07 11:08:44;;;;;;;3.85;2.08;;;31.70;36.00;;;;;;4991337;28;20045;-46
2022/08/07 11:11:15;;;;;;;4.35;2.00;;;31.20;37.40;;;;;;4993867;28;20030;-47
2022/08/07 11:14:08;;;;;;;4.38;2.10;;;31.60;37.10;;;;;;4976700;28;20030;-49
2022/08/07 11:16:47;;;;;;;4.05;1.70;;;31.30;36.20;;;;;;4993706;28;20072;-48
2022/08/07 11:19:29;;;;;;;6.15;1.90;;;31.50;38.30;;;;;;4974732;28;20031;-49
2022/08/07 11:22:08;;;;;;;4.05;1.85;;;31.50;38.10;;;;;;4973910;28;20145;-47
2022/08/07 11:24:48;;;;;;;3.10;1.85;;;31.90;37.30;;;;;;4976577;28;20041;-47
2022/08/07 11:27:20;;;;;;;3.85;1.98;;;31.70;36.70;;;;;;4974768;28;20035;-45
2022/08/07 11:29:53;;;;;;;3.10;2.00;;;31.70;36.80;;;;;;4976244;28;20027;-46
2022/08/07 11:32:39;;;;;;;4.00;2.45;;;31.90;39.00;;;;;;4974212;28;20118;-48
2022/08/07 11:35:14;;;;;;;4.50;2.30;;;32.10;37.40;;;;;;4974613;28;20453;-47
2022/08/07 11:38:08;;;;;;;3.20;1.90;;;32.00;38.30;;;;;;4973277;28;20056;-49
2022/08/07 11:40:47;;;;;;;4.43;2.28;;;32.30;37.60;;;;;;4980330;28;20077;-49
2022/08/07 11:43:31;;;;;;;4.63;2.08;;;32.00;37.30;;;;;;4991939;28;20034;-45
2022/08/07 11:46:33;;;;;;;5.70;2.00;;;31.80;37.10;;;;;;4992636;28;20134;-45
2022/08/07 11:49:17;;;;;;;4.55;2.08;;;31.80;38.50;;;;;;4991737;28;20489;-52
2022/08/07 11:51:45;;;;;;;5.00;2.30;;;32.00;38.40;;;;;;4992713;28;20034;-49
2022/08/07 11:54:34;;;;;;;2.42;1.67;;;32.10;36.60;;;;;;4993187;28;20034;-46
2022/08/07 11:57:27;;;;;;;4.95;2.08;;;31.70;37.60;;;;;;4986118;28;20030;-46
2022/08/07 12:00:07;;;;;;;9.13;2.30;;;30.90;37.90;;;;;;4991323;28;20438;-50
2022/08/07 12:02:41;;;;;;;3.92;2.25;;;30.60;37.10;;;;;;4991968;28;20485;-48
2022/08/07 12:05:14;;;;;;;3.72;2.20;;;31.00;39.10;;;;;;4991457;28;20026;-45
2022/08/07 12:07:50;;;;;;;4.80;2.05;;;31.70;38.80;;;;;;4991809;28;20037;-47
2022/08/07 12:10:32;;;;;;;4.25;2.10;;;31.80;37.90;;;;;;4993264;28;20608;-47
2022/08/07 12:13:17;;;;;;;4.57;2.13;;;31.90;36.70;;;;;;4992749;28;20106;-50
2022/08/07 12:16:09;;;;;;;7.22;2.50;;;32.20;36.30;;;;;;4992974;28;20022;-49
2022/08/07 12:18:52;;;;;;;3.78;2.22;;;32.40;36.40;;;;;;4978494;28;20033;-47
2022/08/07 12:21:40;;;;;;;6.95;2.40;;;32.50;37.00;;;;;;4982548;28;20026;-47
2022/08/07 12:24:13;;;;;;;;;;;32.40;37.40;;;;;;4973083;28;20586;-49
2022/08/07 12:26:49;;;;;;;4.78;2.45;;;32.20;36.80;;;;;;4979359;28;19948;-49
2022/08/07 12:29:22;;;;;;;4.40;2.45;;;32.40;37.20;;;;;;4980613;28;20050;-44
2022/08/07 12:32:06;;;;;;;3.97;2.40;;;32.50;36.50;;;;;;4990831;28;20023;-50
2022/08/07 12:34:40;;;;;;;5.20;2.22;;;32.60;36.10;;;;;;4987664;28;20030;-46
2022/08/07 12:37:09;;;;;;;6.85;2.53;;;32.40;36.50;;;;;;4985261;28;20066;-53
2022/08/07 12:39:38;;;;;;;5.57;2.20;;;32.40;36.30;;;;;;4992297;28;20039;-45
2022/08/07 12:42:06;;;;;;;4.40;2.10;;;32.50;38.40;;;;;;4990060;28;20548;-47
2022/08/07 12:44:35;;;;;;;5.50;2.28;;;31.80;40.70;;;;;;4990117;28;20114;-49
2022/08/07 12:47:31;;;;;;;5.22;2.35;;;30.60;41.40;;;;;;4990087;28;20106;-53
2022/08/07 12:50:09;;;;;;;5.35;2.20;;;30.10;43.20;;;;;;4990719;28;20030;-49
2022/08/07 12:52:48;;;;;;;6.20;2.00;;;29.60;44.90;;;;;;4992182;28;20026;-50
2022/08/07 12:55:23;;;;;;;4.45;2.20;;;29.00;45.80;;;;;;4984455;28;20413;-48
2022/08/07 12:57:52;;;;;;;7.25;2.55;;;28.50;46.00;;;;;;4989933;28;20030;-54
2022/08/07 13:00:19;;;;;;;;;;;28.50;47.20;;;;;;4990878;28;20033;-45
2022/08/07 13:02:56;;;;;;;4.60;2.13;;;28.20;47.50;;;;;;4991974;28;19921;-49
2022/08/07 13:05:56;;;;;;;7.47;2.25;;;28.00;48.60;;;;;;4990532;28;20026;-47
2022/08/07 13:08:37;;;;;;;7.45;2.15;;;28.00;48.40;;;;;;4991206;28;20097;-50
2022/08/07 13:11:23;;;;;;;3.80;2.20;;;27.90;48.10;;;;;;4990975;28;20046;-49
2022/08/07 13:14:23;;;;;;;6.55;2.35;;;27.80;47.50;;;;;;4989635;28;20097;-46
2022/08/07 13:17:04;;;;;;;4.85;2.10;;;27.50;48.90;;;;;;4987492;28;20030;-48
2022/08/07 13:20:05;;;;;;;4.88;2.60;;;27.20;49.00;;;;;;4972339;28;20022;-50
2022/08/07 13:22:39;;;;;;;4.72;2.25;;;27.10;50.10;;;;;;4989817;28;20158;-48
2022/08/07 13:25:05;;;;;;;7.65;2.33;;;27.20;50.40;;;;;;4990094;28;20029;-51
2022/08/07 13:27:47;;;;;;;3.85;2.30;;;27.30;51.00;;;;;;4976675;28;20034;-48